Time;durP1;ratioP1;P1;durP2;ratioP2;P2;SDS_P1;SDS_P2;PMS_P1;PMS_P2;Temp;Humidity;BMP_temperature;BMP_pressure;BME280_temperature;BME280_humidity;BME280_pressure;Samples;Min_cycle;Max_cycle;Signal;HPM_P1;HPM_P2
2021/03/03 00:01:28;;;;;;;5.57;2.22;;;2.30;99.90;;;;;;4999047;28;20050;-65
2021/03/03 00:03:54;;;;;;;5.00;1.85;;;2.20;99.90;;;;;;4998432;28;20441;-66
2021/03/03 00:06:21;;;;;;;4.70;2.47;;;2.20;99.90;;;;;;5003027;28;20652;-66
2021/03/03 00:08:47;;;;;;;6.47;1.90;;;2.30;99.90;;;;;;5002928;28;20417;-65
2021/03/03 00:11:14;;;;;;;3.53;1.60;;;2.20;99.90;;;;;;4999837;28;20112;-65
2021/03/03 00:13:40;;;;;;;3.38;2.15;;;2.20;99.90;;;;;;5003247;28;20096;-64
2021/03/03 00:16:07;;;;;;;2.50;1.77;;;2.20;99.90;;;;;;5000509;28;20068;-64
2021/03/03 00:18:33;;;;;;;4.93;1.90;;;2.20;99.90;;;;;;5001842;28;20140;-64
2021/03/03 00:21:01;;;;;;;4.85;2.50;;;2.30;99.90;;;;;;5002760;28;20127;-64
2021/03/03 00:23:27;;;;;;;5.30;1.88;;;2.20;99.90;;;;;;5001289;28;20219;-65
2021/03/03 00:25:53;;;;;;;2.75;1.63;;;2.20;99.90;;;;;;5002865;28;20107;-63
2021/03/03 00:28:20;;;;;;;2.78;1.58;;;2.10;99.90;;;;;;4997877;28;20058;-64
2021/03/03 00:30:46;;;;;;;5.22;2.60;;;2.10;99.90;;;;;;4999480;28;20050;-63
2021/03/03 00:33:12;;;;;;;3.45;1.80;;;2.10;99.90;;;;;;5000100;28;20077;-64
2021/03/03 00:35:39;;;;;;;2.38;1.80;;;2.00;99.90;;;;;;5000742;28;20061;-64
2021/03/03 00:38:05;;;;;;;2.33;1.85;;;2.00;99.90;;;;;;5002039;28;20486;-63
2021/03/03 00:40:32;;;;;;;3.95;2.00;;;2.00;99.90;;;;;;4999072;28;20049;-65
2021/03/03 00:42:59;;;;;;;3.28;2.20;;;2.00;99.90;;;;;;4998199;28;20535;-68
2021/03/03 00:45:26;;;;;;;5.45;2.67;;;2.10;99.90;;;;;;4999101;28;20053;-66
2021/03/03 00:47:56;;;;;;;2.28;1.80;;;2.10;99.90;;;;;;4990665;28;20149;-66
2021/03/03 00:50:24;;;;;;;2.85;1.92;;;2.10;99.90;;;;;;5000023;28;20049;-64
2021/03/03 00:52:53;;;;;;;3.65;1.73;;;2.10;99.90;;;;;;5000300;28;20765;-64
2021/03/03 00:55:23;;;;;;;3.25;2.63;;;2.00;99.90;;;;;;4998695;28;20096;-64
2021/03/03 00:57:50;;;;;;;4.85;2.10;;;2.00;99.90;;;;;;5000401;28;20056;-65
2021/03/03 01:00:35;;;;;;;6.07;2.00;;;2.10;99.90;;;;;;5000887;28;20049;-63
2021/03/03 01:03:04;;;;;;;3.13;2.15;;;2.10;99.90;;;;;;4996405;28;20607;-65
2021/03/03 01:05:31;;;;;;;5.07;3.28;;;2.00;99.90;;;;;;4999698;28;20054;-64
2021/03/03 01:07:58;;;;;;;3.08;2.45;;;2.00;99.90;;;;;;5019442;28;20071;-64
2021/03/03 01:10:25;;;;;;;3.22;1.95;;;2.00;99.90;;;;;;5003015;28;20405;-66
2021/03/03 01:12:53;;;;;;;3.03;2.25;;;2.00;99.90;;;;;;5008472;28;20080;-66
2021/03/03 01:15:21;;;;;;;2.55;1.55;;;2.00;99.90;;;;;;4998359;28;20057;-65
2021/03/03 01:17:50;;;;;;;2.42;1.60;;;2.10;99.90;;;;;;5001268;28;20054;-66
2021/03/03 01:20:17;;;;;;;2.40;2.20;;;2.30;99.90;;;;;;5005177;28;20049;-63
2021/03/03 01:22:43;;;;;;;6.15;2.03;;;2.30;99.90;;;;;;5005876;28;20077;-63
2021/03/03 01:25:10;;;;;;;4.07;2.00;;;2.30;99.90;;;;;;5003394;28;20073;-64
2021/03/03 01:27:37;;;;;;;1.50;1.25;;;2.30;99.90;;;;;;5002853;28;20100;-63
2021/03/03 01:30:04;;;;;;;4.25;2.33;;;2.30;99.90;;;;;;5005031;28;20561;-64
2021/03/03 01:32:30;;;;;;;4.20;1.90;;;2.30;99.90;;;;;;5006178;28;20820;-63
2021/03/03 01:34:57;;;;;;;3.08;1.65;;;2.20;99.90;;;;;;5004124;28;20049;-63
2021/03/03 01:37:23;;;;;;;2.42;1.80;;;2.20;99.90;;;;;;5005590;28;20468;-63
2021/03/03 01:39:49;;;;;;;2.50;2.00;;;2.10;99.90;;;;;;5000803;28;20156;-65
2021/03/03 01:42:16;;;;;;;2.42;2.08;;;2.00;99.90;;;;;;5001711;28;20082;-65
2021/03/03 01:44:42;;;;;;;2.30;1.90;;;2.00;99.90;;;;;;5005505;28;20060;-63
2021/03/03 01:47:09;;;;;;;5.78;2.20;;;1.90;99.90;;;;;;5003881;28;20064;-66
2021/03/03 01:49:35;;;;;;;3.00;2.17;;;1.90;99.90;;;;;;5000280;28;20167;-66
2021/03/03 01:52:02;;;;;;;6.03;2.08;;;1.90;99.90;;;;;;5002285;28;20096;-66
2021/03/03 01:54:29;;;;;;;3.20;1.55;;;1.90;99.90;;;;;;5006228;28;20057;-64
2021/03/03 01:56:57;;;;;;;3.17;2.10;;;1.80;99.90;;;;;;5003961;28;20639;-66
2021/03/03 01:59:23;;;;;;;6.40;2.17;;;1.80;99.90;;;;;;5004096;28;20050;-67
2021/03/03 02:01:50;;;;;;;5.78;2.42;;;1.80;99.90;;;;;;4996763;28;20612;-69
2021/03/03 02:04:17;;;;;;;4.50;2.35;;;1.70;99.90;;;;;;5002591;28;20065;-68
2021/03/03 02:06:53;;;;;;;2.08;1.88;;;1.70;99.90;;;;;;5003995;28;20042;-65
2021/03/03 02:09:43;;;;;;;5.25;3.10;;;1.60;99.90;;;;;;5005499;28;20093;-66
2021/03/03 02:12:18;;;;;;;3.70;2.30;;;1.60;99.90;;;;;;5004210;28;20062;-64
2021/03/03 02:14:51;;;;;;;5.18;2.38;;;1.60;99.90;;;;;;5004394;28;20127;-64
2021/03/03 02:17:22;;;;;;;3.40;2.58;;;1.60;99.90;;;;;;5002175;28;20103;-67
2021/03/03 02:19:50;;;;;;;5.22;2.58;;;1.50;99.90;;;;;;5004000;28;20441;-67
2021/03/03 02:22:39;;;;;;;2.60;1.80;;;1.50;99.90;;;;;;5004678;28;20481;-63
2021/03/03 02:25:28;;;;;;;4.88;2.42;;;1.50;99.90;;;;;;5002898;28;20049;-65
2021/03/03 02:27:59;;;;;;;2.75;2.33;;;1.50;99.90;;;;;;5002513;28;20489;-64
2021/03/03 02:30:26;;;;;;;2.17;1.90;;;1.50;99.90;;;;;;5002939;28;20057;-65
2021/03/03 02:32:52;;;;;;;3.50;2.67;;;1.50;99.90;;;;;;5003728;28;20119;-65
2021/03/03 02:35:20;;;;;;;5.25;2.42;;;1.40;99.90;;;;;;5001817;28;20062;-66
2021/03/03 02:37:47;;;;;;;7.28;2.40;;;1.40;99.90;;;;;;4998810;28;20053;-63
2021/03/03 02:40:15;;;;;;;7.78;3.80;;;1.40;99.90;;;;;;5005455;28;20077;-65
2021/03/03 02:42:42;;;;;;;5.68;2.45;;;1.40;99.90;;;;;;4997283;28;20456;-64
2021/03/03 02:45:20;;;;;;;5.72;2.88;;;1.40;99.90;;;;;;5003225;28;20084;-67
2021/03/03 02:47:47;;;;;;;5.85;3.28;;;1.30;99.90;;;;;;5002134;28;20053;-64
2021/03/03 02:50:14;;;;;;;3.60;2.35;;;1.30;99.90;;;;;;5002013;28;20120;-64
2021/03/03 02:52:47;;;;;;;3.17;2.28;;;1.30;99.90;;;;;;5003921;28;20516;-69
2021/03/03 02:55:14;;;;;;;3.30;2.00;;;1.30;99.90;;;;;;5002454;28;20054;-64
2021/03/03 02:57:42;;;;;;;5.22;2.33;;;1.30;99.90;;;;;;5000632;28;20045;-63
2021/03/03 03:00:12;;;;;;;2.88;2.47;;;1.30;99.90;;;;;;5003859;28;20104;-65
2021/03/03 03:02:40;;;;;;;5.75;2.50;;;1.20;99.90;;;;;;4999990;28;20041;-63
2021/03/03 03:05:09;;;;;;;4.05;2.45;;;1.20;99.90;;;;;;5002613;28;20060;-67
2021/03/03 03:07:39;;;;;;;7.63;3.15;;;1.20;99.90;;;;;;5000396;28;20139;-64
2021/03/03 03:10:09;;;;;;;5.10;2.45;;;1.20;99.90;;;;;;5000312;28;20050;-63
2021/03/03 03:12:37;;;;;;;4.10;2.50;;;1.20;99.90;;;;;;5001254;28;20096;-64
2021/03/03 03:15:05;;;;;;;4.43;2.13;;;1.20;99.90;;;;;;5002792;28;20061;-63
2021/03/03 03:17:33;;;;;;;5.50;2.35;;;1.20;99.90;;;;;;4998992;28;20096;-64
2021/03/03 03:20:03;;;;;;;4.15;2.10;;;1.20;99.90;;;;;;5005041;28;20457;-65
2021/03/03 03:22:30;;;;;;;2.70;2.00;;;1.10;99.90;;;;;;5002017;28;20046;-68
2021/03/03 03:24:58;;;;;;;3.35;2.55;;;1.10;99.90;;;;;;5001790;28;20405;-65
2021/03/03 03:27:26;;;;;;;6.20;3.08;;;1.10;99.90;;;;;;5002279;28;20088;-65
2021/03/03 03:29:53;;;;;;;6.00;3.03;;;1.10;99.90;;;;;;4998313;28;20057;-64
2021/03/03 03:32:23;;;;;;;;;;;1.10;99.90;;;;;;5002513;28;20061;-64
2021/03/03 03:34:50;;;;;;;7.88;2.45;;;1.10;99.90;;;;;;5003274;28;20559;-64
2021/03/03 03:37:18;;;;;;;3.47;2.70;;;1.00;99.90;;;;;;5000893;28;20054;-65
2021/03/03 03:39:44;;;;;;;3.45;2.47;;;1.10;99.90;;;;;;5002374;28;20049;-66
2021/03/03 03:42:13;;;;;;;4.47;2.85;;;1.10;99.90;;;;;;5002224;28;20128;-64
2021/03/03 03:44:41;;;;;;;8.07;2.35;;;1.10;99.90;;;;;;4999514;28;20108;-64
2021/03/03 03:47:09;;;;;;;7.25;2.45;;;1.10;99.90;;;;;;5001894;28;20116;-66
2021/03/03 03:49:36;;;;;;;7.32;2.67;;;1.10;99.90;;;;;;5000908;28;20065;-64
2021/03/03 03:52:03;;;;;;;8.70;4.13;;;1.10;99.90;;;;;;5002462;28;20135;-66
2021/03/03 03:54:29;;;;;;;7.60;3.63;;;1.30;99.90;;;;;;5001931;28;20061;-65
2021/03/03 03:56:55;;;;;;;5.63;3.47;;;1.30;99.90;;;;;;5000611;28;20072;-63
2021/03/03 03:59:22;;;;;;;11.77;3.80;;;1.40;99.90;;;;;;5001399;28;20042;-64
2021/03/03 04:01:48;;;;;;;6.93;3.08;;;1.40;99.90;;;;;;4999959;28;20041;-64
2021/03/03 04:04:15;;;;;;;5.20;2.88;;;1.40;99.90;;;;;;4999361;28;20145;-65
2021/03/03 04:06:41;;;;;;;7.78;3.63;;;1.40;99.90;;;;;;5002084;28;20148;-65
2021/03/03 04:09:07;;;;;;;8.82;4.13;;;1.60;99.90;;;;;;5001166;28;20062;-67
2021/03/03 04:11:34;;;;;;;7.65;3.10;;;1.60;99.90;;;;;;5001379;28;20502;-65
2021/03/03 04:14:09;;;;;;;6.15;3.60;;;1.70;99.90;;;;;;5000861;28;20046;-64
2021/03/03 04:16:37;;;;;;;7.03;3.67;;;1.80;99.90;;;;;;5001666;28;20155;-63
2021/03/03 04:19:04;;;;;;;7.57;3.53;;;1.80;99.90;;;;;;5000864;28;20050;-66
2021/03/03 04:21:30;;;;;;;5.82;4.07;;;1.80;99.90;;;;;;5001955;28;20062;-64
2021/03/03 04:23:56;;;;;;;5.38;3.70;;;1.90;99.90;;;;;;4997885;28;20137;-65
2021/03/03 04:26:23;;;;;;;5.95;3.88;;;1.90;99.90;;;;;;4999854;28;20204;-63
2021/03/03 04:28:49;;;;;;;8.15;3.65;;;2.00;99.90;;;;;;5004905;28;20057;-66
2021/03/03 04:31:16;;;;;;;6.70;3.55;;;2.10;99.90;;;;;;5000586;28;20604;-66
2021/03/03 04:33:42;;;;;;;4.88;2.92;;;2.10;99.90;;;;;;5000593;28;20046;-63
2021/03/03 04:36:09;;;;;;;4.93;4.45;;;2.10;99.90;;;;;;5000469;28;20175;-63
2021/03/03 04:38:35;;;;;;;6.50;3.55;;;2.10;99.90;;;;;;4996432;28;20054;-64
2021/03/03 04:41:01;;;;;;;7.20;3.42;;;2.00;99.90;;;;;;5002526;28;20053;-66
2021/03/03 04:43:28;;;;;;;4.80;3.33;;;2.00;99.90;;;;;;4999016;28;20045;-67
2021/03/03 04:45:54;;;;;;;7.68;3.45;;;2.00;99.90;;;;;;4998557;28;20412;-63
2021/03/03 04:48:21;;;;;;;5.00;3.58;;;2.00;99.90;;;;;;5001939;28;20644;-64
2021/03/03 04:50:47;;;;;;;5.32;4.00;;;2.00;99.90;;;;;;4999117;28;20076;-67
2021/03/03 04:53:14;;;;;;;9.40;4.90;;;2.00;99.90;;;;;;5001098;28;20045;-64
2021/03/03 04:55:40;;;;;;;6.53;4.15;;;2.10;99.90;;;;;;5008491;28;20749;-63
2021/03/03 04:58:07;;;;;;;4.32;3.53;;;2.10;99.90;;;;;;5000205;28;20145;-66
2021/03/03 05:00:34;;;;;;;7.28;4.20;;;2.10;99.90;;;;;;5001308;28;20054;-63
2021/03/03 05:03:01;;;;;;;5.95;3.97;;;2.10;99.90;;;;;;5001695;28;20100;-65
2021/03/03 05:05:27;;;;;;;5.38;4.47;;;2.10;99.90;;;;;;4999525;28;20500;-68
2021/03/03 05:07:54;;;;;;;6.88;4.90;;;2.10;99.90;;;;;;5001540;28;20147;-63
2021/03/03 05:10:21;;;;;;;8.13;4.13;;;2.00;99.90;;;;;;4994898;28;20050;-63
2021/03/03 05:12:47;;;;;;;8.52;4.53;;;2.00;99.90;;;;;;4998749;28;20455;-68
2021/03/03 05:15:14;;;;;;;8.63;4.88;;;1.90;99.90;;;;;;4999344;28;20139;-64
2021/03/03 05:17:40;;;;;;;10.02;5.13;;;1.90;99.90;;;;;;4998116;28;20123;-66
2021/03/03 05:20:08;;;;;;;7.82;4.70;;;2.00;99.90;;;;;;5002998;28;20057;-64
2021/03/03 05:22:34;;;;;;;11.85;5.05;;;1.90;99.90;;;;;;5002396;28;20104;-63
2021/03/03 05:25:02;;;;;;;9.05;5.28;;;2.00;99.90;;;;;;5000254;28;20108;-68
2021/03/03 05:27:29;;;;;;;11.68;6.43;;;2.00;99.90;;;;;;5001468;28;20061;-66
2021/03/03 05:29:55;;;;;;;11.43;7.00;;;2.00;99.90;;;;;;5000176;28;20050;-65
2021/03/03 05:32:22;;;;;;;9.50;5.82;;;2.00;99.90;;;;;;5000400;28;20045;-65
2021/03/03 05:34:49;;;;;;;10.68;7.55;;;2.00;99.90;;;;;;4998049;28;20257;-65
2021/03/03 05:37:15;;;;;;;12.45;7.03;;;1.90;99.90;;;;;;5002236;28;20042;-63
2021/03/03 05:39:42;;;;;;;12.27;7.65;;;1.90;99.90;;;;;;4997961;28;20473;-63
2021/03/03 05:42:08;;;;;;;14.27;8.82;;;1.80;99.90;;;;;;5000107;28;20088;-65
2021/03/03 05:44:36;;;;;;;14.40;7.63;;;1.80;99.90;;;;;;4999691;28;20131;-64
2021/03/03 05:47:03;;;;;;;15.38;7.18;;;1.80;99.90;;;;;;5000851;28;20379;-63
2021/03/03 05:49:34;;;;;;;15.93;9.57;;;1.70;99.90;;;;;;4998901;28;20069;-66
2021/03/03 05:52:02;;;;;;;11.30;7.38;;;1.70;99.90;;;;;;5000469;28;20394;-63
2021/03/03 05:54:29;;;;;;;15.57;9.43;;;1.60;99.90;;;;;;5005233;28;20108;-63
2021/03/03 05:56:57;;;;;;;9.85;7.30;;;1.60;99.90;;;;;;5005346;28;20049;-64
2021/03/03 05:59:24;;;;;;;10.98;7.47;;;1.50;99.90;;;;;;5004527;28;20058;-63
2021/03/03 06:01:51;;;;;;;12.30;7.57;;;1.50;99.90;;;;;;5003682;28;20128;-64
2021/03/03 06:04:21;;;;;;;16.17;7.55;;;1.50;99.90;;;;;;5002522;28;20050;-64
2021/03/03 06:06:47;;;;;;;13.20;6.80;;;1.40;99.90;;;;;;5006905;28;20511;-63
2021/03/03 06:09:14;;;;;;;13.63;7.18;;;1.40;99.90;;;;;;5005013;28;20399;-65
2021/03/03 06:11:40;;;;;;;17.23;9.57;;;1.40;99.90;;;;;;5000666;28;20077;-69
2021/03/03 06:14:07;;;;;;;17.67;8.23;;;1.40;99.90;;;;;;5006099;28;20049;-63
2021/03/03 06:16:34;;;;;;;17.70;6.97;;;1.40;99.90;;;;;;5002094;28;20132;-64
2021/03/03 06:19:01;;;;;;;18.20;5.82;;;1.40;99.90;;;;;;5000267;28;20552;-66
2021/03/03 06:21:32;;;;;;;11.35;5.55;;;1.40;99.90;;;;;;5005903;28;20054;-63
2021/03/03 06:24:09;;;;;;;12.05;5.05;;;1.40;99.90;;;;;;5002041;28;20046;-63
2021/03/03 06:26:57;;;;;;;7.47;5.03;;;1.40;99.90;;;;;;5002847;28;20124;-63
2021/03/03 06:29:24;;;;;;;13.95;5.80;;;1.50;99.90;;;;;;5003390;28;20053;-63
2021/03/03 06:31:51;;;;;;;10.68;5.30;;;1.50;99.90;;;;;;5000608;28;20050;-66
2021/03/03 06:34:48;;;;;;;11.98;5.10;;;1.50;99.90;;;;;;5004994;28;20112;-63
2021/03/03 06:37:15;;;;;;;10.13;5.30;;;1.50;99.90;;;;;;5002238;28;20108;-64
2021/03/03 06:39:42;;;;;;;14.15;6.63;;;1.60;99.90;;;;;;5001840;28;20049;-64
2021/03/03 06:42:10;;;;;;;14.45;4.80;;;1.60;99.90;;;;;;5003714;28;20069;-67
2021/03/03 06:44:56;;;;;;;6.45;5.18;;;1.60;99.90;;;;;;5002799;28;20115;-64
2021/03/03 06:47:24;;;;;;;17.00;5.05;;;1.60;99.90;;;;;;5003573;28;20048;-65
2021/03/03 06:49:52;;;;;;;16.42;4.65;;;1.70;99.90;;;;;;5002688;28;20443;-64
2021/03/03 06:52:42;;;;;;;17.75;5.43;;;1.70;99.90;;;;;;5003326;28;20052;-66
2021/03/03 06:55:10;;;;;;;19.70;5.07;;;1.70;99.90;;;;;;5002967;28;20058;-66
2021/03/03 06:57:37;;;;;;;8.15;5.00;;;1.80;99.90;;;;;;4998056;28;20528;-64
2021/03/03 07:00:08;;;;;;;15.57;6.68;;;1.80;99.90;;;;;;5004640;28;20683;-63
2021/03/03 07:02:37;;;;;;;17.50;5.93;;;1.90;99.90;;;;;;5001635;28;20132;-66
2021/03/03 07:05:07;;;;;;;15.65;5.30;;;1.90;99.90;;;;;;5002273;28;20060;-64
2021/03/03 07:07:33;;;;;;;12.10;5.18;;;1.90;99.90;;;;;;5001997;28;20126;-63
2021/03/03 07:10:00;;;;;;;24.08;6.15;;;1.90;99.90;;;;;;5002345;28;20136;-64
2021/03/03 07:12:31;;;;;;;9.95;3.97;;;1.90;99.90;;;;;;5000889;28;20050;-65
2021/03/03 07:15:04;;;;;;;12.90;6.50;;;2.00;99.90;;;;;;5003316;28;20049;-67
2021/03/03 07:17:41;;;;;;;20.83;5.38;;;2.00;99.90;;;;;;5000316;28;20057;-66
2021/03/03 07:20:14;;;;;;;16.60;5.43;;;2.00;99.90;;;;;;4998972;28;20155;-65
2021/03/03 07:22:46;;;;;;;13.45;4.82;;;2.10;99.90;;;;;;5002363;28;20049;-64
2021/03/03 07:25:15;;;;;;;14.85;5.15;;;2.10;99.90;;;;;;5001756;28;20478;-68
2021/03/03 07:27:43;;;;;;;20.80;6.00;;;2.10;99.90;;;;;;5001284;28;20091;-64
2021/03/03 07:30:21;;;;;;;7.45;4.60;;;2.10;99.90;;;;;;5002443;28;20120;-68
2021/03/03 07:32:49;;;;;;;19.48;5.38;;;2.20;99.90;;;;;;5001738;28;20476;-67
2021/03/03 07:35:33;;;;;;;17.48;5.35;;;2.20;99.90;;;;;;5000223;28;20516;-64
2021/03/03 07:38:02;;;;;;;11.32;5.88;;;2.20;99.90;;;;;;5001886;28;20207;-63
2021/03/03 07:40:31;;;;;;;15.65;5.63;;;2.20;99.90;;;;;;5003690;28;20053;-64
2021/03/03 07:43:00;;;;;;;10.00;5.10;;;2.30;99.90;;;;;;5000283;28;20053;-66
2021/03/03 07:45:39;;;;;;;15.40;4.85;;;2.30;99.90;;;;;;5003399;28;20050;-63
2021/03/03 07:48:08;;;;;;;8.18;4.60;;;2.40;99.90;;;;;;4999599;28;20429;-65
2021/03/03 07:50:36;;;;;;;6.68;4.53;;;2.40;99.90;;;;;;5002192;28;20654;-63
2021/03/03 07:53:03;;;;;;;5.65;4.32;;;2.40;99.90;;;;;;5001217;28;20057;-63
2021/03/03 07:55:30;;;;;;;9.10;5.72;;;2.50;99.90;;;;;;5001571;28;20682;-63
2021/03/03 07:57:59;;;;;;;8.15;5.30;;;2.50;99.90;;;;;;4997249;28;20042;-66
2021/03/03 08:00:33;;;;;;;7.03;5.13;;;2.50;99.90;;;;;;4990316;28;20088;-64
2021/03/03 08:03:03;;;;;;;5.68;4.32;;;2.60;99.90;;;;;;5002341;28;20675;-64
2021/03/03 08:05:49;;;;;;;9.63;4.93;;;2.70;99.90;;;;;;5006137;28;20169;-65
2021/03/03 08:08:33;;;;;;;6.70;4.35;;;2.70;99.90;;;;;;5003162;28;20060;-63
2021/03/03 08:11:00;;;;;;;8.23;4.60;;;2.70;99.90;;;;;;5001378;28;20115;-63
2021/03/03 08:13:40;;;;;;;6.60;4.50;;;2.80;99.90;;;;;;5000782;28;20124;-65
2021/03/03 08:16:08;;;;;;;6.20;3.95;;;2.80;99.90;;;;;;5002501;28;20041;-64
2021/03/03 08:18:49;;;;;;;11.40;4.55;;;2.80;99.90;;;;;;5002168;28;20121;-66
2021/03/03 08:21:16;;;;;;;9.00;4.50;;;2.80;99.90;;;;;;5003568;28;20050;-65
2021/03/03 08:23:45;;;;;;;7.13;4.57;;;2.80;99.90;;;;;;4997963;28;20521;-65
2021/03/03 08:26:17;;;;;;;5.85;4.35;;;2.80;99.90;;;;;;5000419;28;20466;-64
2021/03/03 08:28:55;;;;;;;11.82;5.07;;;2.80;99.90;;;;;;5001964;28;20037;-66
2021/03/03 08:31:26;;;;;;;7.28;4.50;;;2.90;99.90;;;;;;5005198;28;20136;-65
2021/03/03 08:33:53;;;;;;;6.28;4.65;;;2.90;99.90;;;;;;4999673;28;20687;-66
2021/03/03 08:36:25;;;;;;;9.55;4.50;;;2.90;99.90;;;;;;5002372;28;20413;-65
2021/03/03 08:38:54;;;;;;;;;;;3.00;99.90;;;;;;5000213;28;20056;-65
2021/03/03 08:41:31;;;;;;;;;;;3.00;99.90;;;;;;5001383;28;19932;-64
2021/03/03 08:44:04;;;;;;;12.13;5.05;;;3.00;99.90;;;;;;4996714;28;20414;-66
2021/03/03 08:46:30;;;;;;;4.13;3.13;;;3.00;99.90;;;;;;5002449;28;20057;-65
2021/03/03 08:48:57;;;;;;;6.78;3.95;;;3.00;99.90;;;;;;4999108;28;20090;-65
2021/03/03 08:51:28;;;;;;;4.15;2.92;;;3.00;99.90;;;;;;4997380;28;20096;-66
2021/03/03 08:53:56;;;;;;;10.27;4.00;;;3.10;99.90;;;;;;4999705;28;20069;-68
2021/03/03 08:56:52;;;;;;;3.92;3.47;;;3.20;99.90;;;;;;5000324;28;20057;-65
2021/03/03 08:59:28;;;;;;;4.07;3.55;;;3.30;99.90;;;;;;4997559;28;20049;-64
2021/03/03 09:01:56;;;;;;;6.85;3.35;;;3.40;99.90;;;;;;4997218;28;20151;-68
2021/03/03 09:04:26;;;;;;;5.38;3.38;;;3.30;99.90;;;;;;5003232;28;20466;-64
2021/03/03 09:06:58;;;;;;;4.03;3.15;;;3.30;99.90;;;;;;5001610;28;20104;-65
2021/03/03 09:09:26;;;;;;;4.68;4.18;;;3.20;99.90;;;;;;4995995;28;20838;-64
2021/03/03 09:12:04;;;;;;;5.47;4.18;;;3.20;99.90;;;;;;4999287;28;20053;-64
2021/03/03 09:14:31;;;;;;;6.68;3.58;;;3.20;99.90;;;;;;5002043;28;20053;-65
2021/03/03 09:17:10;;;;;;;7.28;3.22;;;3.20;99.90;;;;;;4999523;28;20544;-68
2021/03/03 09:19:37;;;;;;;4.50;3.05;;;3.30;99.90;;;;;;4999704;28;20072;-65
2021/03/03 09:22:15;;;;;;;4.65;4.22;;;3.30;99.90;;;;;;5000016;28;20124;-64
2021/03/03 09:24:43;;;;;;;4.50;3.03;;;3.30;99.90;;;;;;4998954;28;20129;-65
2021/03/03 09:27:14;;;;;;;4.22;3.28;;;3.30;99.90;;;;;;5001740;28;20132;-67
2021/03/03 09:29:42;;;;;;;5.80;3.10;;;3.40;99.90;;;;;;5003346;28;20464;-65
2021/03/03 09:32:11;;;;;;;4.10;3.17;;;3.50;99.90;;;;;;4999478;28;20070;-68
2021/03/03 09:34:56;;;;;;;6.45;3.65;;;3.60;99.90;;;;;;5002275;28;20791;-64
2021/03/03 09:37:24;;;;;;;3.20;2.75;;;3.50;99.90;;;;;;5003888;28;20058;-66
2021/03/03 09:39:56;;;;;;;5.90;3.35;;;3.60;99.90;;;;;;5002358;28;20109;-67
2021/03/03 09:42:23;;;;;;;5.95;3.20;;;3.60;99.90;;;;;;5002278;28;20213;-65
2021/03/03 09:44:55;;;;;;;5.43;3.55;;;3.70;99.90;;;;;;5003442;28;20078;-64
2021/03/03 09:47:26;;;;;;;6.30;3.08;;;3.80;99.90;;;;;;5003727;28;20073;-65
2021/03/03 09:49:59;;;;;;;7.35;3.22;;;3.70;99.90;;;;;;5002555;28;20058;-64
2021/03/03 09:52:34;;;;;;;11.52;4.18;;;3.60;99.90;;;;;;5002480;28;20050;-65
2021/03/03 09:55:02;;;;;;;8.27;3.88;;;3.60;99.90;;;;;;5004759;28;20048;-66
2021/03/03 09:57:28;;;;;;;8.10;3.35;;;3.50;99.90;;;;;;5001454;28;20502;-64
2021/03/03 09:59:57;;;;;;;4.68;3.63;;;3.50;99.90;;;;;;5000736;28;20046;-64
2021/03/03 10:02:25;;;;;;;4.38;3.50;;;3.50;99.90;;;;;;5004606;28;20045;-66
2021/03/03 10:04:53;;;;;;;6.10;3.20;;;3.50;99.90;;;;;;5002275;28;20042;-65
2021/03/03 10:07:23;;;;;;;6.97;3.72;;;3.50;99.90;;;;;;4988951;28;20531;-64
2021/03/03 10:09:55;;;;;;;10.93;5.70;;;3.60;99.90;;;;;;5000190;28;21824;-64
2021/03/03 10:12:24;;;;;;;7.38;3.40;;;3.80;99.90;;;;;;5003506;28;20069;-67
2021/03/03 10:14:59;;;;;;;6.18;2.75;;;3.80;99.90;;;;;;5004827;28;20586;-64
2021/03/03 10:17:34;;;;;;;4.15;3.78;;;3.80;99.90;;;;;;5001959;28;20148;-66
2021/03/03 10:20:03;;;;;;;4.50;3.80;;;3.90;99.90;;;;;;5002234;28;20505;-65
2021/03/03 10:22:30;;;;;;;8.50;5.28;;;3.90;99.90;;;;;;5004977;28;20429;-67
2021/03/03 10:24:58;;;;;;;6.95;4.00;;;4.00;99.90;;;;;;5003578;28;20155;-68
2021/03/03 10:27:28;;;;;;;8.60;3.50;;;4.00;99.90;;;;;;5002534;28;20054;-67
2021/03/03 10:29:55;;;;;;;6.90;4.72;;;4.00;99.90;;;;;;4999814;28;20120;-64
2021/03/03 10:32:22;;;;;;;9.60;4.57;;;4.10;99.90;;;;;;4998189;28;20505;-65
2021/03/03 10:34:49;;;;;;;7.43;3.88;;;4.20;99.90;;;;;;5004472;28;20073;-65
2021/03/03 10:37:26;;;;;;;6.00;3.67;;;4.30;99.90;;;;;;5002179;28;20068;-67
2021/03/03 10:39:53;;;;;;;9.30;4.03;;;4.40;99.90;;;;;;4999026;28;20080;-65
2021/03/03 10:42:22;;;;;;;10.70;4.40;;;4.40;99.90;;;;;;5001677;28;20049;-66
2021/03/03 10:44:54;;;;;;;7.50;4.25;;;4.40;99.90;;;;;;5005058;28;20100;-66
2021/03/03 10:47:41;;;;;;;12.02;4.15;;;4.50;99.90;;;;;;5001461;28;20049;-66
2021/03/03 10:50:29;;;;;;;39.20;4.65;;;4.70;99.90;;;;;;4999095;28;20505;-65
2021/03/03 10:52:59;;;;;;;5.40;3.45;;;4.70;99.90;;;;;;5002441;28;20058;-68
2021/03/03 10:55:32;;;;;;;5.93;3.25;;;4.50;99.90;;;;;;5003772;28;20057;-68
2021/03/03 10:58:11;;;;;;;4.78;3.15;;;4.50;99.90;;;;;;4997412;28;20108;-66
2021/03/03 11:00:57;;;;;;;4.72;3.75;;;4.60;99.90;;;;;;4997767;28;20677;-67
2021/03/03 11:03:29;;;;;;;5.07;3.05;;;4.50;99.90;;;;;;5003299;28;20053;-64
2021/03/03 11:05:57;;;;;;;4.07;3.22;;;4.40;99.90;;;;;;4983433;28;20069;-69
2021/03/03 11:08:25;;;;;;;7.75;3.90;;;4.50;99.90;;;;;;4999132;28;20053;-66
2021/03/03 11:11:02;;;;;;;4.07;3.30;;;4.60;99.90;;;;;;5003602;28;20108;-65
2021/03/03 11:13:29;;;;;;;9.85;4.00;;;4.70;99.90;;;;;;5002219;28;20445;-64
2021/03/03 11:15:55;;;;;;;4.78;3.72;;;4.70;99.90;;;;;;5000597;28;20128;-66
2021/03/03 11:18:22;;;;;;;9.13;3.30;;;4.80;99.90;;;;;;4995453;28;20123;-65
2021/03/03 11:20:48;;;;;;;5.88;3.40;;;4.80;99.90;;;;;;5001073;28;20042;-68
2021/03/03 11:23:15;;;;;;;6.47;2.75;;;4.80;99.90;;;;;;5001258;28;20053;-65
2021/03/03 11:25:41;;;;;;;5.72;2.80;;;4.80;99.90;;;;;;4996101;28;20046;-65
2021/03/03 11:28:08;;;;;;;6.72;3.00;;;4.80;99.90;;;;;;5001345;28;20125;-67
2021/03/03 11:30:35;;;;;;;4.72;3.80;;;4.80;99.90;;;;;;5002438;28;20120;-63
2021/03/03 11:33:02;;;;;;;7.55;3.83;;;4.70;99.90;;;;;;5000653;28;20128;-67
2021/03/03 11:35:28;;;;;;;9.88;3.88;;;4.60;99.90;;;;;;5002263;28;20131;-66
2021/03/03 11:37:55;;;;;;;9.52;3.97;;;4.60;99.90;;;;;;4999763;28;20136;-65
2021/03/03 11:40:21;;;;;;;6.25;3.65;;;4.70;99.90;;;;;;5002040;28;20072;-64
2021/03/03 11:42:48;;;;;;;6.00;4.07;;;4.70;99.90;;;;;;4997570;28;20049;-64
2021/03/03 11:45:14;;;;;;;4.63;3.92;;;4.60;99.90;;;;;;5005722;28;20054;-66
2021/03/03 11:47:44;;;;;;;16.73;3.63;;;4.60;99.90;;;;;;5002118;28;20085;-65
2021/03/03 11:50:11;;;;;;;12.77;4.05;;;4.50;99.90;;;;;;5000136;28;20050;-64
2021/03/03 11:52:38;;;;;;;5.65;3.55;;;4.40;99.90;;;;;;5000155;28;20060;-67
2021/03/03 11:55:06;;;;;;;15.32;4.65;;;4.50;99.90;;;;;;4999595;28;20049;-66
2021/03/03 11:57:32;;;;;;;5.68;4.20;;;4.50;99.90;;;;;;4998132;28;20046;-64
2021/03/03 11:59:59;;;;;;;13.48;4.60;;;4.40;99.90;;;;;;4996076;28;20046;-64
2021/03/03 12:02:25;;;;;;;6.82;3.75;;;4.40;99.90;;;;;;4999383;28;20088;-65
2021/03/03 12:04:53;;;;;;;5.85;3.22;;;4.40;99.90;;;;;;4996359;28;20071;-66
2021/03/03 12:07:20;;;;;;;10.70;3.88;;;4.40;99.90;;;;;;4999824;28;20046;-65
2021/03/03 12:09:46;;;;;;;7.57;3.95;;;4.50;99.90;;;;;;4999144;28;20054;-65
2021/03/03 12:12:13;;;;;;;7.82;3.22;;;4.50;99.90;;;;;;5001802;28;20177;-69
2021/03/03 12:14:40;;;;;;;6.82;3.78;;;4.50;99.90;;;;;;4998368;28;20482;-64
2021/03/03 12:17:07;;;;;;;4.05;2.95;;;4.40;99.90;;;;;;5002902;28;20118;-65
2021/03/03 12:19:34;;;;;;;6.50;3.63;;;4.40;99.90;;;;;;4999720;28;20128;-64
2021/03/03 12:22:01;;;;;;;7.55;3.42;;;4.40;99.90;;;;;;4998723;28;20136;-65
2021/03/03 12:24:27;;;;;;;5.07;3.90;;;4.40;99.90;;;;;;5002059;28;20046;-64
2021/03/03 12:26:54;;;;;;;8.50;4.82;;;4.50;99.90;;;;;;5000062;28;20096;-68
2021/03/03 12:29:23;;;;;;;5.50;3.50;;;4.50;99.90;;;;;;5000118;28;20132;-66
2021/03/03 12:31:50;;;;;;;17.73;3.72;;;4.50;99.90;;;;;;5000497;28;20467;-65
2021/03/03 12:34:16;;;;;;;7.18;4.20;;;4.50;99.90;;;;;;4998384;28;20141;-67
2021/03/03 12:36:43;;;;;;;4.05;2.72;;;4.60;99.90;;;;;;5001752;28;20420;-69
2021/03/03 12:39:16;;;;;;;6.53;2.95;;;4.70;99.90;;;;;;4999299;28;20390;-65
2021/03/03 12:41:43;;;;;;;5.68;2.45;;;4.80;99.90;;;;;;4996599;28;20046;-67
2021/03/03 12:44:09;;;;;;;8.05;5.38;;;4.70;99.90;;;;;;5000113;28;20053;-67
2021/03/03 12:46:35;;;;;;;6.63;3.72;;;4.60;99.90;;;;;;4996699;28;20131;-67
2021/03/03 12:49:03;;;;;;;4.13;3.30;;;4.70;99.90;;;;;;4999639;28;20049;-64
2021/03/03 12:51:30;;;;;;;5.68;3.00;;;4.70;99.90;;;;;;5001978;28;20559;-65
2021/03/03 12:53:56;;;;;;;4.80;2.90;;;4.70;99.90;;;;;;4994778;28;20053;-69
2021/03/03 12:56:23;;;;;;;5.40;3.00;;;4.60;99.90;;;;;;4998031;28;20939;-65
2021/03/03 12:58:51;;;;;;;4.63;3.03;;;4.60;99.90;;;;;;5003853;28;20627;-69
2021/03/03 13:01:18;;;;;;;8.80;3.03;;;4.50;99.90;;;;;;4999562;28;20406;-64
2021/03/03 13:03:45;;;;;;;5.22;2.90;;;4.40;99.90;;;;;;4997110;28;20107;-64
2021/03/03 13:06:12;;;;;;;7.10;3.15;;;4.40;99.90;;;;;;5000578;28;20046;-64